createdAt,value
2018-08-04T00:00:47.392Z,24.79
2018-08-04T00:03:15.464Z,24.73
2018-08-04T00:05:43.141Z,24.77
2018-08-04T00:08:10.790Z,24.75
2018-08-04T00:10:38.429Z,24.76
2018-08-04T00:13:06.589Z,24.67
2018-08-04T00:15:34.265Z,24.72
2018-08-04T00:18:01.887Z,24.77
2018-08-04T00:20:29.566Z,24.83
2018-08-04T00:22:57.465Z,24.74
2018-08-04T00:25:25.341Z,24.62
2018-08-04T00:27:53.172Z,24.55
2018-08-04T00:30:20.826Z,24.54
2018-08-04T00:32:48.495Z,24.62
2018-08-04T00:35:16.396Z,24.75
2018-08-04T00:37:44.020Z,24.81
2018-08-04T00:40:12.816Z,24.83
2018-08-04T00:42:41.407Z,24.94
2018-08-04T00:45:09.068Z,24.87
2018-08-04T00:47:36.995Z,24.94
2018-08-04T00:50:06.020Z,24.80
2018-08-04T00:52:33.858Z,24.86
2018-08-04T00:55:01.854Z,24.80
2018-08-04T00:57:30.328Z,24.90
2018-08-04T00:59:58.184Z,25.00
2018-08-04T01:02:26.225Z,25.07
2018-08-04T01:04:54.310Z,25.09
2018-08-04T01:07:22.176Z,25.10
2018-08-04T01:09:50.073Z,25.17
2018-08-04T01:12:17.732Z,25.17
2018-08-04T01:14:45.397Z,25.18
2018-08-04T01:17:13.397Z,25.09
2018-08-04T01:19:41.433Z,25.02
2018-08-04T01:22:09.561Z,24.89
2018-08-04T01:24:37.189Z,24.79
2018-08-04T01:27:05.101Z,24.88
2018-08-04T01:29:32.766Z,24.87
2018-08-04T01:32:00.767Z,24.88
2018-08-04T01:34:28.735Z,24.79
2018-08-04T01:36:56.408Z,24.69
2018-08-04T01:39:24.009Z,24.68
2018-08-04T01:41:51.914Z,24.78
2018-08-04T01:44:19.884Z,24.81
2018-08-04T01:46:47.801Z,24.76
2018-08-04T01:49:15.729Z,24.70
2018-08-04T01:51:43.363Z,24.62
2018-08-04T01:54:11.054Z,24.63
2018-08-04T01:56:38.680Z,24.60
2018-08-04T01:59:06.276Z,24.56
2018-08-04T02:01:34.413Z,24.74
2018-08-04T02:04:02.116Z,24.76
2018-08-04T02:06:29.732Z,24.56
2018-08-04T02:08:57.678Z,24.58
2018-08-04T02:11:25.841Z,24.65
2018-08-04T02:13:53.763Z,24.78
2018-08-04T02:16:21.641Z,24.91
2018-08-04T02:18:49.551Z,24.98
2018-08-04T02:21:17.358Z,24.90
2018-08-04T02:23:45.316Z,24.78
2018-08-04T02:26:12.906Z,24.61
2018-08-04T02:28:40.545Z,24.42
2018-08-04T02:31:08.776Z,24.26
2018-08-04T02:33:37.024Z,24.32
2018-08-04T02:36:05.028Z,24.38
2018-08-04T02:38:32.898Z,24.37
2018-08-04T02:41:00.602Z,24.39
2018-08-04T02:43:28.737Z,24.36
2018-08-04T02:45:56.457Z,24.16
2018-08-04T02:48:24.093Z,24.17
2018-08-04T02:50:51.721Z,24.10
2018-08-04T02:53:19.801Z,24.05
2018-08-04T02:55:47.818Z,24.11
2018-08-04T02:58:15.484Z,24.08
2018-08-04T03:00:43.371Z,24.16
2018-08-04T03:03:11.449Z,24.22
2018-08-04T03:05:39.693Z,24.11
2018-08-04T03:08:07.361Z,24.12
2018-08-04T03:10:35.263Z,24.06
2018-08-04T03:13:03.230Z,24.03
2018-08-04T03:15:30.852Z,24.06
2018-08-04T03:17:58.705Z,24.03
2018-08-04T03:20:26.888Z,24.08
2018-08-04T03:22:54.771Z,24.21
2018-08-04T03:25:22.377Z,24.19
2018-08-04T03:27:50.304Z,24.16
2018-08-04T03:30:18.212Z,24.23
2018-08-04T03:32:46.451Z,24.15
2018-08-04T03:35:14.037Z,24.15
2018-08-04T03:37:41.628Z,24.13
2018-08-04T03:40:09.267Z,24.16
2018-08-04T03:42:37.424Z,24.17
2018-08-04T03:45:05.325Z,24.23
2018-08-04T03:47:32.966Z,24.32
2018-08-04T03:50:00.770Z,24.45
2018-08-04T03:52:28.444Z,24.46
2018-08-04T03:54:56.108Z,24.36
2018-08-04T03:57:24.051Z,24.35
2018-08-04T03:59:51.723Z,24.36
2018-08-04T04:02:19.393Z,24.31
2018-08-04T04:04:47.363Z,24.27
2018-08-04T04:07:15.016Z,24.33
2018-08-04T04:09:42.642Z,24.37
2018-08-04T04:12:10.344Z,24.34
2018-08-04T04:14:38.210Z,24.62
2018-08-04T04:17:05.833Z,24.60
2018-08-04T04:19:33.658Z,24.54
2018-08-04T04:22:01.327Z,24.56
2018-08-04T04:24:29.266Z,24.55
2018-08-04T04:26:56.953Z,24.48
2018-08-04T04:29:24.563Z,24.50
2018-08-04T04:31:52.469Z,24.66
2018-08-04T04:34:20.151Z,24.65
2018-08-04T04:36:48.376Z,24.70
2018-08-04T04:41:46.120Z,24.67
2018-08-04T04:44:13.986Z,24.79
2018-08-04T04:46:42.216Z,24.79
2018-08-04T04:49:14.244Z,24.85
2018-08-04T04:51:42.633Z,24.93
2018-08-04T04:54:10.472Z,24.92
2018-08-04T04:56:38.452Z,24.84
2018-08-04T04:59:06.126Z,24.94
2018-08-04T05:01:34.108Z,24.87
2018-08-04T05:04:02.120Z,24.93
2018-08-04T05:06:29.875Z,24.93
2018-08-04T05:08:58.228Z,24.87
2018-08-04T05:11:25.890Z,24.87
2018-08-04T05:13:53.641Z,24.85
2018-08-04T05:16:21.570Z,24.73
2018-08-04T05:18:49.261Z,24.60
2018-08-04T05:21:17.200Z,24.55
2018-08-04T05:23:45.118Z,24.49
2018-08-04T05:26:12.766Z,24.55
2018-08-04T05:28:40.909Z,24.57
2018-08-04T05:31:08.632Z,24.49
2018-08-04T05:33:36.403Z,24.44
2018-08-04T05:36:04.716Z,24.38
2018-08-04T05:38:32.636Z,24.29
2018-08-04T05:41:00.641Z,24.37
2018-08-04T05:43:28.501Z,24.31
2018-08-04T05:45:56.310Z,24.30
2018-08-04T05:48:24.202Z,24.38
2018-08-04T05:50:51.868Z,24.41
2018-08-04T05:53:19.783Z,24.41
2018-08-04T05:55:47.454Z,24.35
2018-08-04T05:58:15.154Z,24.41
2018-08-04T06:00:42.931Z,24.45
2018-08-04T06:03:10.881Z,24.46
2018-08-04T06:05:38.608Z,24.56
2018-08-04T06:08:06.647Z,24.65
2018-08-04T06:10:34.534Z,24.95
2018-08-04T06:13:02.744Z,25.17
2018-08-04T06:15:30.393Z,25.35
2018-08-04T06:17:58.344Z,25.48
2018-08-04T06:20:26.075Z,25.61
2018-08-04T06:22:53.969Z,25.63
2018-08-04T06:25:22.557Z,25.75
2018-08-04T06:27:50.736Z,25.77
2018-08-04T06:30:18.417Z,25.83
2018-08-04T06:32:46.308Z,25.70
2018-08-04T06:35:14.287Z,25.75
2018-08-04T06:37:41.954Z,25.89
2018-08-04T06:40:09.938Z,26.05
2018-08-04T06:42:38.466Z,26.09
2018-08-04T06:45:06.332Z,26.21
2018-08-04T06:47:34.369Z,26.22
2018-08-04T06:50:02.486Z,26.28
2018-08-04T06:52:30.418Z,26.31
2018-08-04T06:54:58.072Z,26.16
2018-08-04T06:57:26.364Z,25.94
2018-08-04T06:59:53.997Z,25.69
2018-08-04T07:02:21.679Z,25.67
2018-08-04T07:04:49.989Z,25.67
2018-08-04T07:07:17.937Z,25.68
2018-08-04T07:09:45.554Z,25.70
2018-08-04T07:12:13.481Z,25.67
2018-08-04T07:14:41.346Z,25.48
2018-08-04T07:17:09.253Z,25.46
2018-08-04T07:19:36.924Z,25.43
2018-08-04T07:22:05.217Z,25.45
2018-08-04T07:24:32.913Z,25.44
2018-08-04T07:27:00.840Z,25.43
2018-08-04T07:29:28.763Z,25.39
2018-08-04T07:31:56.424Z,25.31
2018-08-04T07:34:24.175Z,25.29
2018-08-04T07:36:51.892Z,25.19
2018-08-04T07:39:19.621Z,25.12
2018-08-04T07:41:47.210Z,25.23
2018-08-04T07:44:14.884Z,25.29
2018-08-04T07:46:42.497Z,25.29
2018-08-04T07:49:10.173Z,25.28
2018-08-04T07:51:38.107Z,25.24
2018-08-04T07:54:06.029Z,25.23
2018-08-04T07:56:33.947Z,25.27
2018-08-04T07:59:01.606Z,25.44
2018-08-04T08:01:29.455Z,25.60
2018-08-04T08:03:57.126Z,25.59
2018-08-04T08:06:25.072Z,25.57
2018-08-04T08:08:53.073Z,25.62
2018-08-04T08:11:21.156Z,25.74
2018-08-04T08:13:49.025Z,25.84
2018-08-04T08:16:17.231Z,25.83
2018-08-04T08:18:45.749Z,25.77
2018-08-04T08:21:13.378Z,25.80
2018-08-04T08:23:41.374Z,25.89
2018-08-04T08:26:12.949Z,25.94
2018-08-04T08:28:41.412Z,25.95
2018-08-04T08:31:09.275Z,26.07
2018-08-04T08:33:37.908Z,25.95
2018-08-04T08:36:06.210Z,26.09
2018-08-04T08:38:34.183Z,26.11
2018-08-04T08:41:01.891Z,26.27
2018-08-04T08:43:29.709Z,26.23
2018-08-04T08:45:57.709Z,26.23
2018-08-04T08:48:25.520Z,26.29
2018-08-04T08:50:53.431Z,26.17
2018-08-04T08:53:21.247Z,26.12
2018-08-04T08:55:48.925Z,26.08
2018-08-04T08:58:17.193Z,26.08
2018-08-04T09:00:45.451Z,26.21
2018-08-04T09:03:13.078Z,26.40
2018-08-04T09:05:41.002Z,26.51
2018-08-04T09:08:08.705Z,26.59
2018-08-04T09:10:36.385Z,26.64
2018-08-04T09:13:04.085Z,26.73
2018-08-04T09:15:32.080Z,26.70
2018-08-04T09:18:00.266Z,26.74
2018-08-04T09:20:27.920Z,26.81
2018-08-04T09:22:56.108Z,26.81
2018-08-04T09:25:23.813Z,26.81
2018-08-04T09:27:51.759Z,26.88
2018-08-04T09:30:19.904Z,26.90
2018-08-04T09:32:47.532Z,26.87
2018-08-04T09:35:15.869Z,26.89
2018-08-04T09:37:44.200Z,26.89
2018-08-04T09:40:13.726Z,26.98
2018-08-04T09:42:41.915Z,26.67
2018-08-04T09:45:10.256Z,27.11
2018-08-04T09:47:38.480Z,27.12
2018-08-04T09:50:07.267Z,27.10
2018-08-04T09:52:35.070Z,27.12
2018-08-04T09:55:03.215Z,27.13
2018-08-04T09:57:31.188Z,27.16
2018-08-04T09:59:58.816Z,27.19
2018-08-04T10:02:27.055Z,27.17
2018-08-04T10:04:55.801Z,27.15
2018-08-04T10:07:24.257Z,27.20
2018-08-04T10:09:52.139Z,27.16
2018-08-04T10:12:19.820Z,27.16
2018-08-04T10:14:47.591Z,27.19
2018-08-04T10:17:15.946Z,27.26
2018-08-04T10:19:43.900Z,27.26
2018-08-04T10:22:12.217Z,27.32
2018-08-04T10:24:39.834Z,27.39
2018-08-04T10:27:07.810Z,27.34
2018-08-04T10:29:36.334Z,27.30
2018-08-04T10:32:04.340Z,27.34
2018-08-04T10:34:31.972Z,27.39
2018-08-04T10:36:59.595Z,27.42
2018-08-04T10:39:27.961Z,27.51
2018-08-04T10:41:57.693Z,27.52
2018-08-04T10:44:25.344Z,27.55
2018-08-04T10:46:53.035Z,27.60
2018-08-04T10:49:20.710Z,27.69
2018-08-04T10:51:48.749Z,27.69
2018-08-04T10:54:16.906Z,27.67
2018-08-04T10:56:45.081Z,27.61
2018-08-04T10:59:12.733Z,27.64
2018-08-04T11:01:40.634Z,27.68
2018-08-04T11:04:08.319Z,27.78
2018-08-04T11:06:36.047Z,27.85
2018-08-04T11:09:07.098Z,27.79
2018-08-04T11:11:36.232Z,27.82
2018-08-04T11:14:04.782Z,27.90
2018-08-04T11:16:32.787Z,27.86
2018-08-04T11:19:00.437Z,27.94
2018-08-04T11:21:28.401Z,28.08
2018-08-04T11:23:56.403Z,28.22
2018-08-04T11:26:24.039Z,28.31
2018-08-04T11:28:52.140Z,28.37
2018-08-04T11:31:20.582Z,28.42
2018-08-04T11:33:48.931Z,28.48
2018-08-04T11:36:17.011Z,28.50
2018-08-04T11:38:45.309Z,28.57
2018-08-04T11:41:13.589Z,28.64
2018-08-04T11:43:41.647Z,28.68
2018-08-04T11:46:09.732Z,28.70
2018-08-04T11:48:37.473Z,28.74
2018-08-04T11:51:05.468Z,28.84
2018-08-04T11:53:33.496Z,28.90
2018-08-04T11:56:01.504Z,28.97
2018-08-04T11:58:29.446Z,28.98
2018-08-04T12:00:57.204Z,28.98
2018-08-04T12:03:25.113Z,28.97
2018-08-04T12:05:53.640Z,28.99
2018-08-04T12:08:21.316Z,29.03
2018-08-04T12:10:49.036Z,29.03
2018-08-04T12:13:16.736Z,29.04
2018-08-04T12:15:44.688Z,29.00
2018-08-04T12:18:12.422Z,29.01
2018-08-04T12:20:40.039Z,29.05
2018-08-04T12:23:07.950Z,29.08
2018-08-04T12:25:35.788Z,29.17
2018-08-04T12:28:03.791Z,29.23
2018-08-04T12:30:32.089Z,29.28
2018-08-04T12:33:00.213Z,29.32
2018-08-04T12:35:28.409Z,29.35
2018-08-04T12:37:56.092Z,29.35
2018-08-04T12:40:24.090Z,29.38
2018-08-04T12:42:51.783Z,29.39
2018-08-04T12:45:19.691Z,29.43
2018-08-04T12:47:47.726Z,29.46
2018-08-04T12:50:15.404Z,29.49
2018-08-04T12:52:43.368Z,29.56
2018-08-04T12:55:11.021Z,29.57
2018-08-04T12:57:39.286Z,29.55
2018-08-04T13:00:07.562Z,29.58
2018-08-04T13:02:35.234Z,29.60
2018-08-04T13:05:03.021Z,29.63
2018-08-04T13:07:30.681Z,29.64
2018-08-04T13:09:58.573Z,29.64
2018-08-04T13:12:26.269Z,29.64
2018-08-04T13:14:53.958Z,29.62
2018-08-04T13:17:22.138Z,29.58
2018-08-04T13:19:50.150Z,29.59
2018-08-04T13:22:17.862Z,29.65
2018-08-04T13:24:45.554Z,29.68
2018-08-04T13:27:13.502Z,29.70
2018-08-04T13:29:41.806Z,29.76
2018-08-04T13:32:09.492Z,29.80
2018-08-04T13:34:37.816Z,29.86
2018-08-04T13:37:05.816Z,29.89
2018-08-04T13:39:33.527Z,29.93
2018-08-04T13:42:01.193Z,29.97
2018-08-04T13:44:29.202Z,30.01
2018-08-04T13:46:57.210Z,30.07
2018-08-04T13:49:24.869Z,30.11
2018-08-04T13:51:52.861Z,30.15
2018-08-04T13:54:20.974Z,30.18
2018-08-04T13:56:48.915Z,30.21
2018-08-04T13:59:16.570Z,30.23
2018-08-04T14:01:44.664Z,30.26
2018-08-04T14:04:12.718Z,30.27
2018-08-04T14:06:41.190Z,30.32
2018-08-04T14:09:10.281Z,30.36
2018-08-04T14:11:37.968Z,30.39
2018-08-04T14:14:06.011Z,30.41
2018-08-04T14:16:33.752Z,30.43
2018-08-04T14:19:01.610Z,30.50
2018-08-04T14:21:30.094Z,30.55
2018-08-04T14:23:58.580Z,30.61
2018-08-04T14:26:26.683Z,30.70
2018-08-04T14:28:54.324Z,30.82
2018-08-04T14:31:22.932Z,30.99
2018-08-04T14:33:50.592Z,31.61
2018-08-04T14:36:18.526Z,32.22
2018-08-04T14:38:46.208Z,32.58
2018-08-04T14:41:14.640Z,32.89
2018-08-04T14:43:42.583Z,33.23
2018-08-04T14:46:10.223Z,33.42
2018-08-04T14:48:38.206Z,33.35
2018-08-04T14:51:06.533Z,33.21
2018-08-04T14:53:34.999Z,32.80
2018-08-04T14:56:03.026Z,32.56
2018-08-04T14:58:31.142Z,32.33
2018-08-04T15:00:59.440Z,32.22
2018-08-04T15:03:27.096Z,31.83
2018-08-04T15:05:54.816Z,31.56
2018-08-04T15:08:22.797Z,31.41
2018-08-04T15:10:50.542Z,31.29
2018-08-04T15:13:18.633Z,31.17
2018-08-04T15:15:46.482Z,31.05
2018-08-04T15:18:14.136Z,30.95
2018-08-04T15:20:41.817Z,30.90
2018-08-04T15:23:09.479Z,30.89
2018-08-04T15:25:37.557Z,30.93
2018-08-04T15:28:05.670Z,30.98
2018-08-04T15:30:33.336Z,31.03
2018-08-04T15:33:01.015Z,31.11
2018-08-04T15:35:28.700Z,31.16
2018-08-04T15:37:56.377Z,31.12
2018-08-04T15:40:24.096Z,31.03
2018-08-04T15:42:51.793Z,30.96
2018-08-04T15:45:19.485Z,30.90
2018-08-04T15:47:47.645Z,30.87
2018-08-04T15:50:15.310Z,30.85
2018-08-04T15:52:43.388Z,30.84
2018-08-04T15:55:11.404Z,30.87
2018-08-04T15:57:39.098Z,30.86
2018-08-04T16:00:08.450Z,30.45
2018-08-04T16:02:36.121Z,30.79
2018-08-04T16:05:03.850Z,30.75
2018-08-04T16:07:31.796Z,30.73
2018-08-04T16:09:59.448Z,30.71
2018-08-04T16:12:27.329Z,30.66
2018-08-04T16:14:55.298Z,30.59
2018-08-04T16:17:23.021Z,30.53
2018-08-04T16:19:50.790Z,30.47
2018-08-04T16:22:18.447Z,30.42
2018-08-04T16:24:46.197Z,30.35
2018-08-04T16:27:13.879Z,30.28
2018-08-04T16:29:42.162Z,30.24
2018-08-04T16:32:09.831Z,30.19
2018-08-04T16:34:37.748Z,30.17
2018-08-04T16:37:05.522Z,30.13
2018-08-04T16:39:33.262Z,30.10
2018-08-04T16:42:01.189Z,30.06
2018-08-04T16:44:29.480Z,30.01
2018-08-04T16:46:57.457Z,29.97
2018-08-04T16:49:25.443Z,29.92
2018-08-04T16:51:53.223Z,29.88
2018-08-04T16:54:21.004Z,29.85
2018-08-04T16:56:48.789Z,29.78
2018-08-04T16:59:16.621Z,29.74
2018-08-04T17:01:44.352Z,29.69
2018-08-04T17:04:12.363Z,29.67
2018-08-04T17:06:40.128Z,29.62
2018-08-04T17:09:09.881Z,29.57
2018-08-04T17:11:37.639Z,29.53
2018-08-04T17:14:06.974Z,29.49
2018-08-04T17:16:34.830Z,29.45
2018-08-04T17:19:02.618Z,29.40
2018-08-04T17:21:30.982Z,29.36
2018-08-04T17:23:58.997Z,29.33
2018-08-04T17:26:27.131Z,29.32
2018-08-04T17:28:54.889Z,29.32
2018-08-04T17:31:22.979Z,29.30
2018-08-04T17:33:51.047Z,29.29
2018-08-04T17:36:19.177Z,29.26
2018-08-04T17:38:47.018Z,29.23
2018-08-04T17:41:14.808Z,29.22
2018-08-04T17:43:42.648Z,29.21
2018-08-04T17:46:10.486Z,29.20
2018-08-04T17:48:38.279Z,29.27
2018-08-04T17:51:06.093Z,29.39
2018-08-04T17:53:34.257Z,29.79
2018-08-04T17:56:02.296Z,30.12
2018-08-04T17:58:30.022Z,30.29
2018-08-04T18:00:58.230Z,30.15
2018-08-04T18:03:26.481Z,30.03
2018-08-04T18:05:54.155Z,29.95
2018-08-04T18:08:21.993Z,29.87
2018-08-04T18:10:50.025Z,29.75
2018-08-04T18:13:18.598Z,29.68
2018-08-04T18:15:46.361Z,29.61
2018-08-04T18:18:14.146Z,29.60
2018-08-04T18:20:41.950Z,29.57
2018-08-04T18:23:09.730Z,29.54
2018-08-04T18:25:37.457Z,29.64
2018-08-04T18:28:05.296Z,29.74
2018-08-04T18:30:33.005Z,29.85
2018-08-04T18:33:00.805Z,29.94
2018-08-04T18:35:28.538Z,29.95
2018-08-04T18:37:56.267Z,29.96
2018-08-04T18:40:24.599Z,29.96
2018-08-04T18:42:52.371Z,29.96
2018-08-04T18:45:20.700Z,29.89
2018-08-04T18:47:48.442Z,29.76
2018-08-04T18:50:16.313Z,29.64
2018-08-04T18:52:44.063Z,29.55
2018-08-04T18:55:11.833Z,29.44
2018-08-04T18:57:39.578Z,29.42
2018-08-04T19:00:07.521Z,29.36
2018-08-04T19:02:35.299Z,29.30
2018-08-04T19:05:03.043Z,29.24
2018-08-04T19:07:30.815Z,29.19
2018-08-04T19:09:59.236Z,29.14
2018-08-04T19:12:26.950Z,29.10
2018-08-04T19:14:54.757Z,29.06
2018-08-04T19:17:22.484Z,29.02
2018-08-04T19:19:50.248Z,28.98
2018-08-04T19:22:18.010Z,28.95
2018-08-04T19:24:45.770Z,28.91
2018-08-04T19:27:13.544Z,28.87
2018-08-04T19:29:41.686Z,28.84
2018-08-04T19:32:09.744Z,28.80
2018-08-04T19:34:37.490Z,28.79
2018-08-04T19:37:05.310Z,28.77
2018-08-04T19:39:33.341Z,28.73
2018-08-04T19:42:01.063Z,28.71
2018-08-04T19:44:28.829Z,28.69
2018-08-04T19:46:56.513Z,28.66
2018-08-04T19:49:24.511Z,28.63
2018-08-04T19:51:52.317Z,28.61
2018-08-04T19:54:20.514Z,28.58
2018-08-04T19:56:48.262Z,28.56
2018-08-04T19:59:16.343Z,28.53
2018-08-04T20:01:44.094Z,28.51
2018-08-04T20:04:11.878Z,28.49
2018-08-04T20:06:40.240Z,28.49
2018-08-04T20:09:10.286Z,28.46
2018-08-04T20:11:38.189Z,28.43
2018-08-04T20:14:06.015Z,28.43
2018-08-04T20:16:34.068Z,28.41
2018-08-04T20:19:01.875Z,28.39
2018-08-04T20:21:29.608Z,28.37
2018-08-04T20:23:57.841Z,28.35
2018-08-04T20:26:25.579Z,28.35
2018-08-04T20:28:53.464Z,28.33
2018-08-04T20:31:21.877Z,28.32
2018-08-04T20:33:50.568Z,28.32
2018-08-04T20:36:18.278Z,28.29
2018-08-04T20:38:45.988Z,28.28
2018-08-04T20:41:13.749Z,28.26
2018-08-04T20:43:41.727Z,28.27
2018-08-04T20:46:09.584Z,28.25
2018-08-04T20:48:37.359Z,28.26
2018-08-04T20:51:05.300Z,28.24
2018-08-04T20:53:33.518Z,28.23
2018-08-04T20:56:01.279Z,28.21
2018-08-04T20:58:29.606Z,28.18
2018-08-04T21:01:08.743Z,28.18
2018-08-04T21:03:36.835Z,28.16
2018-08-04T21:06:04.564Z,28.16
2018-08-04T21:08:32.741Z,28.16
2018-08-04T21:11:00.888Z,28.15
2018-08-04T21:13:28.602Z,28.15
2018-08-04T21:15:56.789Z,28.14
2018-08-04T21:18:25.160Z,28.13
2018-08-04T21:20:52.889Z,28.11
2018-08-04T21:23:20.669Z,28.12
2018-08-04T21:25:48.791Z,28.11
2018-08-04T21:28:16.712Z,28.09
2018-08-04T21:30:45.152Z,28.07
2018-08-04T21:33:12.828Z,28.06
2018-08-04T21:35:40.603Z,28.05
2018-08-04T21:38:08.654Z,28.03
2018-08-04T21:40:36.306Z,28.03
2018-08-04T21:43:03.993Z,28.02
2018-08-04T21:45:32.045Z,28.00
2018-08-04T21:48:00.237Z,27.99
2018-08-04T21:50:27.955Z,27.99
2018-08-04T21:52:55.625Z,27.98
2018-08-04T21:55:24.233Z,27.96
2018-08-04T21:57:52.154Z,27.94
2018-08-04T22:00:20.144Z,27.95
2018-08-04T22:02:58.716Z,27.94
2018-08-04T22:05:27.102Z,27.93
2018-08-04T22:08:07.336Z,27.93
2018-08-04T22:10:35.006Z,27.93
2018-08-04T22:13:02.741Z,27.92
2018-08-04T22:15:30.425Z,27.91
2018-08-04T22:17:58.084Z,27.90
2018-08-04T22:20:26.585Z,27.89
2018-08-04T22:22:54.274Z,27.89
2018-08-04T22:25:23.491Z,27.88
2018-08-04T22:27:51.497Z,27.89
2018-08-04T22:30:20.982Z,27.89
2018-08-04T22:32:49.176Z,27.89
2018-08-04T22:35:17.193Z,27.89
2018-08-04T22:37:44.856Z,27.88
2018-08-04T22:40:13.884Z,27.88
2018-08-04T22:42:41.902Z,27.87
2018-08-04T22:45:50.089Z,27.88
2018-08-04T22:48:17.867Z,27.87
2018-08-04T22:50:45.661Z,27.87
2018-08-04T22:53:13.923Z,27.87
2018-08-04T22:55:42.164Z,27.87
2018-08-04T22:58:10.646Z,27.87
2018-08-04T23:00:38.741Z,27.86
2018-08-04T23:03:06.590Z,27.85
2018-08-04T23:05:34.465Z,27.85
2018-08-04T23:08:02.195Z,27.85
2018-08-04T23:10:30.300Z,27.85
2018-08-04T23:12:57.953Z,27.84
2018-08-04T23:15:25.944Z,27.85
2018-08-04T23:17:53.618Z,27.83
2018-08-04T23:20:21.545Z,27.84
2018-08-04T23:22:49.737Z,27.82
2018-08-04T23:25:17.394Z,27.83
2018-08-04T23:27:45.072Z,27.82
2018-08-04T23:30:13.048Z,27.81
2018-08-04T23:32:40.992Z,27.78
2018-08-04T23:35:08.972Z,27.77
2018-08-04T23:37:36.669Z,27.76
2018-08-04T23:40:04.687Z,27.74
2018-08-04T23:42:32.714Z,27.74
2018-08-04T23:45:00.359Z,27.72
2018-08-04T23:47:28.163Z,27.72
2018-08-04T23:49:56.023Z,27.70
2018-08-04T23:52:24.159Z,27.70
2018-08-04T23:54:51.825Z,27.69
2018-08-04T23:57:19.509Z,27.69
2018-08-04T23:59:47.337Z,27.68
